createdAt,value
2023-01-17T00:01:14.020Z,95514.35
2023-01-17T00:03:16.755Z,95508.89
2023-01-17T00:05:38.290Z,95512.23
2023-01-17T00:08:00.235Z,95513.44
2023-01-17T00:10:07.620Z,95522.06
2023-01-17T00:12:10.199Z,95528.13
2023-01-17T00:14:12.772Z,95529.86
2023-01-17T00:16:15.446Z,95526.58
2023-01-17T00:18:18.153Z,95533.81
2023-01-17T00:20:44.797Z,95538.34
2023-01-17T00:23:06.354Z,95539.30
2023-01-17T00:25:36.940Z,95542.11
2023-01-17T00:27:39.502Z,95549.09
2023-01-17T00:29:42.221Z,95548.61
2023-01-17T00:31:44.895Z,95552.67
2023-01-17T00:33:47.565Z,95549.88
2023-01-17T00:35:51.936Z,95552.20
2023-01-17T00:38:15.244Z,95552.27
2023-01-17T00:40:17.721Z,95557.63
2023-01-17T00:42:20.271Z,95560.89
2023-01-17T00:44:41.504Z,95570.05
2023-01-17T00:47:02.756Z,95574.14
2023-01-17T00:49:24.052Z,95582.67
2023-01-17T00:51:46.484Z,95585.35
2023-01-17T00:54:07.980Z,95587.90
2023-01-17T00:56:29.723Z,95592.46
2023-01-17T00:58:51.041Z,95584.95
2023-01-17T01:01:12.786Z,95586.52
2023-01-17T01:03:33.743Z,95589.20
2023-01-17T01:05:56.507Z,95594.13
2023-01-17T01:08:18.777Z,95592.05
2023-01-17T01:10:40.727Z,95600.77
2023-01-17T01:13:02.251Z,95606.14
2023-01-17T01:15:23.799Z,95615.05
2023-01-17T01:17:45.364Z,95616.91
2023-01-17T01:20:06.388Z,95612.86
2023-01-17T01:22:27.697Z,95617.14
2023-01-17T01:24:49.164Z,95622.08
2023-01-17T01:27:10.524Z,95619.30
2023-01-17T01:29:31.662Z,95622.79
2023-01-17T01:31:53.491Z,95626.98
2023-01-17T01:33:56.144Z,95629.91
2023-01-17T01:35:58.686Z,95629.36
2023-01-17T01:38:03.066Z,95633.16
2023-01-17T01:40:06.503Z,95641.54
2023-01-17T01:42:17.921Z,95645.30
2023-01-17T01:44:42.618Z,95647.10
2023-01-17T01:46:45.549Z,95649.71
2023-01-17T01:48:55.041Z,95650.30
2023-01-17T01:50:58.608Z,95654.53
2023-01-17T01:53:03.552Z,95655.42
2023-01-17T01:55:34.918Z,95656.69
2023-01-17T01:57:43.670Z,95668.65
2023-01-17T01:59:51.141Z,95668.37
2023-01-17T02:01:56.117Z,95671.45
2023-01-17T02:03:58.983Z,95674.92
2023-01-17T02:06:17.150Z,95671.70
2023-01-17T02:08:22.961Z,95673.03
2023-01-17T02:10:25.597Z,95678.23
2023-01-17T02:12:28.520Z,95689.74
2023-01-17T02:14:31.184Z,95689.59
2023-01-17T02:16:50.392Z,95687.65
2023-01-17T02:19:18.166Z,95695.06
2023-01-17T02:21:23.152Z,95701.14
2023-01-17T02:23:44.165Z,95706.64
2023-01-17T02:26:19.162Z,95705.30
2023-01-17T02:28:34.405Z,95708.94
2023-01-17T02:30:45.672Z,95704.94
2023-01-17T02:33:25.502Z,95705.18
2023-01-17T02:35:31.674Z,95707.50
2023-01-17T02:37:44.062Z,95704.13
2023-01-17T02:40:14.581Z,95704.06
2023-01-17T02:42:22.411Z,95707.58
2023-01-17T02:44:25.138Z,95702.91
2023-01-17T02:46:28.095Z,95701.02
2023-01-17T02:48:33.265Z,95706.48
2023-01-17T02:51:07.405Z,95707.71
2023-01-17T02:53:33.841Z,95713.80
2023-01-17T02:55:51.152Z,95714.73
2023-01-17T02:58:33.471Z,95716.09
2023-01-17T03:00:53.804Z,95719.83
2023-01-17T03:02:56.570Z,95719.63
2023-01-17T03:05:06.630Z,95726.44
2023-01-17T03:07:16.473Z,95727.89
2023-01-17T03:09:20.479Z,95727.54
2023-01-17T03:11:23.179Z,95726.35
2023-01-17T03:13:26.041Z,95736.17
2023-01-17T03:15:29.398Z,95739.41
2023-01-17T03:17:33.108Z,95742.05
2023-01-17T03:19:36.480Z,95745.63
2023-01-17T03:21:39.240Z,95744.17
2023-01-17T03:23:41.983Z,95750.15
2023-01-17T03:25:45.042Z,95751.64
2023-01-17T03:27:47.680Z,95755.15
2023-01-17T03:29:50.766Z,95758.83
2023-01-17T03:31:53.402Z,95761.11
2023-01-17T03:33:55.895Z,95764.41
2023-01-17T03:35:58.851Z,95773.27
2023-01-17T03:38:01.664Z,95771.27
2023-01-17T03:40:04.853Z,95777.47
2023-01-17T03:42:07.714Z,95780.23
2023-01-17T03:44:10.426Z,95783.66
2023-01-17T03:46:24.908Z,95786.94
2023-01-17T03:48:27.649Z,95782.95
2023-01-17T03:50:30.790Z,95788.04
2023-01-17T03:52:34.730Z,95786.16
2023-01-17T03:54:37.893Z,95787.85
2023-01-17T03:56:40.403Z,95792.56
2023-01-17T03:58:43.391Z,95793.20
2023-01-17T04:00:46.218Z,95792.94
2023-01-17T04:02:49.362Z,95799.34
2023-01-17T04:04:52.209Z,95802.08
2023-01-17T04:06:56.057Z,95803.79
2023-01-17T04:08:58.974Z,95806.00
2023-01-17T04:11:02.505Z,95808.46
2023-01-17T04:13:06.997Z,95810.86
2023-01-17T04:15:10.312Z,95811.10
2023-01-17T04:17:13.614Z,95812.08
2023-01-17T04:19:17.380Z,95814.73
2023-01-17T04:21:20.180Z,95817.04
2023-01-17T04:23:23.005Z,95813.20
2023-01-17T04:25:26.177Z,95818.13
2023-01-17T04:27:28.811Z,95824.33
2023-01-17T04:29:31.906Z,95823.51
2023-01-17T04:31:35.427Z,95825.27
2023-01-17T04:33:41.030Z,95827.71
2023-01-17T04:35:44.016Z,95834.37
2023-01-17T04:37:46.982Z,95836.35
2023-01-17T04:39:51.327Z,95836.38
2023-01-17T04:41:54.897Z,95838.95
2023-01-17T04:43:57.840Z,95836.91
2023-01-17T04:46:01.180Z,95844.25
2023-01-17T04:48:05.248Z,95850.50
2023-01-17T04:50:08.870Z,95855.39
2023-01-17T04:52:12.146Z,95851.19
2023-01-17T04:54:14.834Z,95860.80
2023-01-17T04:56:17.704Z,95865.78
2023-01-17T04:58:21.378Z,95868.05
2023-01-17T05:00:24.887Z,95877.05
2023-01-17T05:02:28.951Z,95872.41
2023-01-17T05:04:32.485Z,95872.61
2023-01-17T05:06:35.259Z,95869.96
2023-01-17T05:08:37.834Z,95874.83
2023-01-17T05:10:40.806Z,95878.42
2023-01-17T05:12:43.345Z,95885.77
2023-01-17T05:14:46.082Z,95884.80
2023-01-17T05:16:48.619Z,95882.63
2023-01-17T05:18:53.443Z,95889.15
2023-01-17T05:21:01.890Z,95890.25
2023-01-17T05:23:04.575Z,95891.70
2023-01-17T05:25:07.614Z,95897.04
2023-01-17T05:27:12.930Z,95898.59
2023-01-17T05:29:16.375Z,95899.05
2023-01-17T05:31:19.111Z,95903.46
2023-01-17T05:33:21.710Z,95900.57
2023-01-17T05:35:27.566Z,95895.99
2023-01-17T05:37:30.425Z,95899.97
2023-01-17T05:39:33.191Z,95901.73
2023-01-17T05:41:35.755Z,95904.55
2023-01-17T05:43:39.555Z,95906.95
2023-01-17T05:45:42.618Z,95909.74
2023-01-17T05:47:51.982Z,95912.58
2023-01-17T05:49:54.508Z,95911.84
2023-01-17T05:51:58.013Z,95913.92
2023-01-17T05:54:00.546Z,95922.48
2023-01-17T05:56:03.238Z,95921.15
2023-01-17T05:58:09.753Z,95923.05
2023-01-17T06:00:14.582Z,95928.20
2023-01-17T06:02:17.188Z,95932.30
2023-01-17T06:04:20.074Z,95930.43
2023-01-17T06:06:22.784Z,95927.73
2023-01-17T06:08:26.380Z,95929.23
2023-01-17T06:10:29.707Z,95932.11
2023-01-17T06:12:32.381Z,95929.90
2023-01-17T06:14:35.083Z,95933.21
2023-01-17T06:16:40.129Z,95933.44
2023-01-17T06:18:43.490Z,95935.08
2023-01-17T06:20:46.078Z,95931.94
2023-01-17T06:22:49.063Z,95931.70
2023-01-17T06:24:51.595Z,95935.86
2023-01-17T06:26:54.156Z,95940.06
2023-01-17T06:28:56.701Z,95938.17
2023-01-17T06:31:00.213Z,95938.81
2023-01-17T06:33:04.243Z,95943.83
2023-01-17T06:35:07.300Z,95943.40
2023-01-17T06:37:10.576Z,95941.48
2023-01-17T06:39:19.420Z,95939.34
2023-01-17T06:41:23.302Z,95937.05
2023-01-17T06:43:28.936Z,95935.11
2023-01-17T06:45:33.793Z,95937.90
2023-01-17T06:47:43.531Z,95937.19
2023-01-17T06:49:48.651Z,95940.88
2023-01-17T06:51:51.281Z,95947.52
2023-01-17T06:54:01.069Z,95951.27
2023-01-17T06:56:03.811Z,95952.92
2023-01-17T06:58:06.951Z,95953.67
2023-01-17T07:00:11.609Z,95960.70
2023-01-17T07:02:14.489Z,95964.66
2023-01-17T07:04:17.183Z,95965.20
2023-01-17T07:06:19.792Z,95968.34
2023-01-17T07:08:22.441Z,95972.80
2023-01-17T07:10:25.241Z,95975.92
2023-01-17T07:12:27.793Z,95977.30
2023-01-17T07:14:31.628Z,95981.48
2023-01-17T07:16:34.231Z,95986.00
2023-01-17T07:18:37.027Z,95987.27
2023-01-17T07:20:39.642Z,95984.30
2023-01-17T07:22:46.785Z,95984.90
2023-01-17T07:24:49.513Z,95988.02
2023-01-17T07:26:53.282Z,95986.77
2023-01-17T07:28:56.041Z,95982.77
2023-01-17T07:30:58.943Z,95985.02
2023-01-17T07:33:12.088Z,95987.66
2023-01-17T07:35:15.472Z,95995.86
2023-01-17T07:37:29.416Z,95998.72
2023-01-17T07:39:32.411Z,95998.85
2023-01-17T07:41:41.124Z,95998.95
2023-01-17T07:43:43.814Z,95999.65
2023-01-17T07:45:51.082Z,96002.41
2023-01-17T07:47:56.566Z,95997.82
2023-01-17T07:49:59.173Z,95999.63
2023-01-17T07:52:01.923Z,96001.08
2023-01-17T07:54:04.867Z,95999.11
2023-01-17T07:56:08.131Z,96000.97
2023-01-17T07:58:11.378Z,96000.80
2023-01-17T08:00:14.335Z,96001.52
2023-01-17T08:02:19.962Z,96009.55
2023-01-17T08:04:25.795Z,96015.06
2023-01-17T08:06:29.402Z,96015.78
2023-01-17T08:08:33.285Z,96013.95
2023-01-17T08:10:36.145Z,96017.10
2023-01-17T08:12:38.933Z,96018.19
2023-01-17T08:14:41.580Z,96019.60
2023-01-17T08:16:44.272Z,96017.75
2023-01-17T08:18:46.896Z,96016.73
2023-01-17T08:20:49.397Z,96016.42
2023-01-17T08:22:56.329Z,96016.88
2023-01-17T08:24:58.884Z,96011.60
2023-01-17T08:27:01.574Z,96009.78
2023-01-17T08:29:04.332Z,96003.55
2023-01-17T08:31:09.181Z,95997.92
2023-01-17T08:33:11.968Z,95993.73
2023-01-17T08:35:29.288Z,95990.21
2023-01-17T08:37:32.256Z,95991.90
2023-01-17T08:39:34.806Z,95996.54
2023-01-17T08:41:37.353Z,95996.36
2023-01-17T08:43:39.880Z,96004.75
2023-01-17T08:45:48.266Z,96003.83
2023-01-17T08:47:51.814Z,96013.90
2023-01-17T08:49:54.440Z,96014.70
2023-01-17T08:51:57.143Z,96021.98
2023-01-17T08:53:59.669Z,96021.98
2023-01-17T08:56:04.457Z,96020.31
2023-01-17T08:58:07.922Z,96020.86
2023-01-17T09:00:11.439Z,96025.17
2023-01-17T09:02:17.719Z,96020.09
2023-01-17T09:04:22.860Z,96019.70
2023-01-17T09:06:32.451Z,96018.95
2023-01-17T09:08:37.551Z,96017.83
2023-01-17T09:10:40.055Z,96015.50
2023-01-17T09:12:42.692Z,96013.80
2023-01-17T09:14:45.207Z,96017.79
2023-01-17T09:16:48.538Z,96013.23
2023-01-17T09:18:55.765Z,96011.65
2023-01-17T09:20:59.203Z,96018.47
2023-01-17T09:23:03.506Z,96017.32
2023-01-17T09:25:07.010Z,96013.70
2023-01-17T09:27:09.624Z,96016.13
2023-01-17T09:29:14.068Z,96010.83
2023-01-17T09:31:17.645Z,96011.21
2023-01-17T09:33:23.187Z,96011.27
2023-01-17T09:35:25.756Z,96004.20
2023-01-17T09:37:28.380Z,96011.26
2023-01-17T09:39:31.232Z,96012.04
2023-01-17T09:41:56.405Z,96012.42
2023-01-17T09:44:19.353Z,96006.49
2023-01-17T09:46:27.179Z,96001.85
2023-01-17T09:48:38.879Z,96001.52
2023-01-17T09:50:57.546Z,96000.66
2023-01-17T09:53:14.576Z,95999.58
2023-01-17T09:55:17.646Z,96001.24
2023-01-17T09:57:35.140Z,95994.84
2023-01-17T10:00:02.272Z,95993.91
2023-01-17T10:02:23.375Z,95991.86
2023-01-17T10:04:46.703Z,95990.09
2023-01-17T10:07:16.074Z,95993.02
2023-01-17T10:09:37.619Z,95993.77
2023-01-17T10:11:44.115Z,95991.98
2023-01-17T10:14:20.066Z,95990.48
2023-01-17T10:16:55.422Z,95992.11
2023-01-17T10:19:08.211Z,95997.30
2023-01-17T10:21:37.796Z,95993.20
2023-01-17T10:24:17.824Z,95993.38
2023-01-17T10:26:29.203Z,95990.33
2023-01-17T10:28:40.338Z,95991.30
2023-01-17T10:30:50.059Z,95991.82
2023-01-17T10:32:53.130Z,95987.52
2023-01-17T10:35:01.367Z,95987.42
2023-01-17T10:37:36.518Z,95988.16
2023-01-17T10:39:46.529Z,95984.46
2023-01-17T10:42:07.211Z,95984.38
2023-01-17T10:44:23.115Z,95982.45
2023-01-17T10:46:32.936Z,95984.03
2023-01-17T10:48:42.902Z,95985.70
2023-01-17T10:51:24.349Z,95982.25
2023-01-17T10:53:54.680Z,95988.04
2023-01-17T10:55:58.058Z,95987.33
2023-01-17T10:58:01.548Z,95985.47
2023-01-17T11:00:28.051Z,95980.73
2023-01-17T11:02:47.596Z,95979.61
2023-01-17T11:04:55.745Z,95982.37
2023-01-17T11:07:19.793Z,95984.86
2023-01-17T11:09:47.119Z,95986.52
2023-01-17T11:11:52.926Z,95987.59
2023-01-17T11:13:59.348Z,95984.79
2023-01-17T11:16:04.178Z,95982.36
2023-01-17T11:18:19.775Z,95979.94
2023-01-17T11:20:34.175Z,95976.48
2023-01-17T11:22:37.277Z,95971.11
2023-01-17T11:25:18.170Z,95971.02
2023-01-17T11:27:30.177Z,95971.44
2023-01-17T11:29:34.172Z,95968.53
2023-01-17T11:31:38.816Z,95966.52
2023-01-17T11:33:55.507Z,95967.29
2023-01-17T11:35:58.155Z,95963.13
2023-01-17T11:38:10.793Z,95962.56
2023-01-17T11:40:37.849Z,95965.58
2023-01-17T11:42:40.434Z,95965.00
2023-01-17T11:44:43.072Z,95965.67
2023-01-17T11:46:45.691Z,95966.90
2023-01-17T11:48:52.932Z,95962.89
2023-01-17T11:50:58.669Z,95959.78
2023-01-17T11:53:24.599Z,95956.42
2023-01-17T11:55:31.608Z,95949.56
2023-01-17T11:57:36.039Z,95944.66
2023-01-17T11:59:44.490Z,95938.02
2023-01-17T12:02:21.221Z,95936.75
2023-01-17T12:04:43.117Z,95942.95
2023-01-17T12:07:19.777Z,95945.52
2023-01-17T12:09:50.076Z,95944.70
2023-01-17T12:12:26.980Z,95942.28
2023-01-17T12:14:49.261Z,95941.84
2023-01-17T12:17:14.061Z,95937.70
2023-01-17T12:19:37.967Z,95935.91
2023-01-17T12:22:08.006Z,95928.64
2023-01-17T12:24:42.717Z,95925.00
2023-01-17T12:27:03.019Z,95921.20
2023-01-17T12:29:26.641Z,95917.42
2023-01-17T12:31:43.870Z,95918.13
2023-01-17T12:34:06.409Z,95915.89
2023-01-17T12:36:27.812Z,95914.55
2023-01-17T12:38:35.874Z,95915.30
2023-01-17T12:40:49.589Z,95910.50
2023-01-17T12:42:58.956Z,95902.83
2023-01-17T12:45:07.606Z,95902.94
2023-01-17T12:47:12.006Z,95901.88
2023-01-17T12:49:51.799Z,95898.96
2023-01-17T12:52:12.803Z,95895.16
2023-01-17T12:54:28.816Z,95898.40
2023-01-17T12:56:45.982Z,95902.66
2023-01-17T12:58:53.974Z,95902.54
2023-01-17T13:01:10.280Z,95901.46
2023-01-17T13:03:24.713Z,95900.46
2023-01-17T13:05:36.832Z,95897.30
2023-01-17T13:08:07.152Z,95899.48
2023-01-17T13:10:32.064Z,95898.22
2023-01-17T13:12:38.916Z,95896.27
2023-01-17T13:14:41.394Z,95891.69
2023-01-17T13:16:51.545Z,95895.73
2023-01-17T13:18:57.055Z,95896.25
2023-01-17T13:21:16.777Z,95893.12
2023-01-17T13:23:30.527Z,95893.04
2023-01-17T13:25:41.360Z,95891.57
2023-01-17T13:27:49.612Z,95898.41
2023-01-17T13:30:04.460Z,95894.27
2023-01-17T13:32:21.213Z,95889.94
2023-01-17T13:34:44.801Z,95885.95
2023-01-17T13:37:05.768Z,95883.60
2023-01-17T13:39:19.437Z,95888.68
2023-01-17T13:41:51.262Z,95888.74
2023-01-17T13:44:19.567Z,95893.94
2023-01-17T13:46:22.300Z,95891.48
2023-01-17T13:48:29.310Z,95890.58
2023-01-17T13:50:38.001Z,95893.54
2023-01-17T13:52:40.559Z,95894.60
2023-01-17T13:54:45.995Z,95897.92
2023-01-17T13:56:48.533Z,95894.71
2023-01-17T13:59:15.387Z,95890.88
2023-01-17T14:01:24.308Z,95888.70
2023-01-17T14:03:56.222Z,95886.11
2023-01-17T14:06:01.466Z,95882.11
2023-01-17T14:08:27.251Z,95886.59
2023-01-17T14:10:36.927Z,95887.61
2023-01-17T14:12:39.873Z,95887.95
2023-01-17T14:14:45.215Z,95889.09
2023-01-17T14:16:47.981Z,95893.71
2023-01-17T14:18:50.650Z,95890.46
2023-01-17T14:21:11.893Z,95892.16
2023-01-17T14:23:26.910Z,95889.16
2023-01-17T14:25:40.908Z,95886.48
2023-01-17T14:27:43.464Z,95881.10
2023-01-17T14:29:50.879Z,95883.40
2023-01-17T14:32:02.144Z,95887.94
2023-01-17T14:34:21.545Z,95886.84
2023-01-17T14:36:30.419Z,95883.98
2023-01-17T14:38:41.280Z,95885.05
2023-01-17T14:40:54.992Z,95881.61
2023-01-17T14:43:12.368Z,95878.69
2023-01-17T14:45:27.716Z,95875.85
2023-01-17T14:47:33.639Z,95872.98
2023-01-17T14:49:36.167Z,95869.23
2023-01-17T14:51:38.992Z,95861.77
2023-01-17T14:53:52.927Z,95858.50
2023-01-17T14:56:12.207Z,95855.58
2023-01-17T14:58:22.992Z,95850.04
2023-01-17T15:00:33.625Z,95845.26
2023-01-17T15:02:41.367Z,95844.70
2023-01-17T15:04:45.699Z,95839.17
2023-01-17T15:06:49.164Z,95830.92
2023-01-17T15:08:54.200Z,95829.33
2023-01-17T15:11:07.683Z,95828.33
2023-01-17T15:13:12.151Z,95829.25
2023-01-17T15:15:47.149Z,95824.09
2023-01-17T15:17:55.127Z,95812.80
2023-01-17T15:20:01.738Z,95809.66
2023-01-17T15:22:08.304Z,95809.79
2023-01-17T15:24:37.276Z,95809.98
2023-01-17T15:26:45.716Z,95808.65
2023-01-17T15:28:51.321Z,95805.13
2023-01-17T15:31:14.972Z,95806.87
2023-01-17T15:33:46.604Z,95814.12
2023-01-17T15:35:49.577Z,95815.92
2023-01-17T15:37:58.481Z,95814.48
2023-01-17T15:40:25.609Z,95814.20
2023-01-17T15:42:32.304Z,95811.31
2023-01-17T15:44:49.131Z,95804.21
2023-01-17T15:46:53.224Z,95798.09
2023-01-17T15:49:23.107Z,95796.64
2023-01-17T15:52:00.441Z,95795.84
2023-01-17T15:54:25.402Z,95794.83
2023-01-17T15:56:34.216Z,95798.75
2023-01-17T15:58:37.609Z,95800.40
2023-01-17T16:00:43.084Z,95805.14
2023-01-17T16:02:52.098Z,95805.83
2023-01-17T16:04:55.864Z,95819.27
2023-01-17T16:07:34.230Z,95824.95
2023-01-17T16:09:45.030Z,95826.25
2023-01-17T16:11:50.748Z,95829.95
2023-01-17T16:13:53.835Z,95831.73
2023-01-17T16:16:29.045Z,95835.30
2023-01-17T16:18:32.677Z,95832.56
2023-01-17T16:20:51.667Z,95833.39
2023-01-17T16:22:54.216Z,95834.30
2023-01-17T16:24:57.435Z,95832.29
2023-01-17T16:26:59.979Z,95830.46
2023-01-17T16:29:03.017Z,95832.88
2023-01-17T16:31:05.960Z,95832.49
2023-01-17T16:33:12.255Z,95836.69
2023-01-17T16:35:24.061Z,95833.20
2023-01-17T16:37:26.683Z,95831.85
2023-01-17T16:39:30.080Z,95829.45
2023-01-17T16:41:33.252Z,95832.77
2023-01-17T16:43:36.088Z,95831.60
2023-01-17T16:45:43.698Z,95829.45
2023-01-17T16:47:47.884Z,95832.48
2023-01-17T16:49:50.610Z,95837.27
2023-01-17T16:51:59.545Z,95838.48
2023-01-17T16:54:08.160Z,95837.86
2023-01-17T16:56:25.597Z,95837.28
2023-01-17T16:58:32.124Z,95837.16
2023-01-17T17:00:36.865Z,95842.35
2023-01-17T17:02:40.819Z,95836.81
2023-01-17T17:04:43.928Z,95838.31
2023-01-17T17:06:46.537Z,95834.57
2023-01-17T17:08:49.385Z,95834.41
2023-01-17T17:10:52.051Z,95834.09
2023-01-17T17:12:56.209Z,95842.73
2023-01-17T17:14:58.787Z,95845.46
2023-01-17T17:17:01.855Z,95851.31
2023-01-17T17:19:06.767Z,95852.45
2023-01-17T17:21:09.660Z,95856.39
2023-01-17T17:23:12.461Z,95860.63
2023-01-17T17:25:15.955Z,95858.13
2023-01-17T17:27:19.113Z,95858.49
2023-01-17T17:29:21.646Z,95861.73
2023-01-17T17:31:24.679Z,95867.70
2023-01-17T17:33:27.723Z,95867.66
2023-01-17T17:35:34.077Z,95874.06
2023-01-17T17:37:37.447Z,95874.83
2023-01-17T17:39:40.190Z,95876.02
2023-01-17T17:41:45.617Z,95876.26
2023-01-17T17:43:49.218Z,95874.02
2023-01-17T17:45:52.319Z,95880.25
2023-01-17T17:47:56.103Z,95880.08
2023-01-17T17:49:58.806Z,95878.54
2023-01-17T17:52:06.355Z,95879.29
2023-01-17T17:54:12.063Z,95872.92
2023-01-17T17:56:16.483Z,95874.16
2023-01-17T17:58:23.510Z,95875.48
2023-01-17T18:00:26.466Z,95871.10
2023-01-17T18:02:29.317Z,95875.40
2023-01-17T18:04:32.062Z,95879.21
2023-01-17T18:06:35.438Z,95876.19
2023-01-17T18:08:40.360Z,95874.34
2023-01-17T18:10:42.879Z,95871.20
2023-01-17T18:12:45.461Z,95867.64
2023-01-17T18:14:48.094Z,95865.59
2023-01-17T18:16:52.124Z,95867.84
2023-01-17T18:18:57.209Z,95867.85
2023-01-17T18:21:08.638Z,95863.45
2023-01-17T18:23:11.699Z,95864.88
2023-01-17T18:25:14.886Z,95864.69
2023-01-17T18:27:17.741Z,95858.99
2023-01-17T18:29:22.167Z,95855.36
2023-01-17T18:31:30.293Z,95858.13
2023-01-17T18:33:38.706Z,95859.64
2023-01-17T18:35:41.842Z,95861.94
2023-01-17T18:37:45.135Z,95863.23
2023-01-17T18:39:49.413Z,95862.48
2023-01-17T18:41:53.043Z,95864.73
2023-01-17T18:43:57.799Z,95862.54
2023-01-17T18:46:00.420Z,95859.58
2023-01-17T18:48:03.777Z,95860.95
2023-01-17T18:50:07.040Z,95863.94
2023-01-17T18:52:10.422Z,95862.73
2023-01-17T18:54:13.635Z,95863.72
2023-01-17T18:56:20.041Z,95867.57
2023-01-17T18:58:24.994Z,95876.08
2023-01-17T19:00:27.976Z,95878.34
2023-01-17T19:02:31.112Z,95880.69
2023-01-17T19:04:35.914Z,95882.63
2023-01-17T19:06:41.789Z,95881.86
2023-01-17T19:08:45.622Z,95881.82
2023-01-17T19:10:49.270Z,95882.83
2023-01-17T19:12:53.351Z,95880.77
2023-01-17T19:14:56.306Z,95881.98
2023-01-17T19:16:58.989Z,95887.74
2023-01-17T19:19:06.388Z,95890.61
2023-01-17T19:21:14.395Z,95896.10
2023-01-17T19:23:17.509Z,95898.27
2023-01-17T19:25:20.678Z,95899.24
2023-01-17T19:27:23.636Z,95898.74
2023-01-17T19:29:26.817Z,95902.95
2023-01-17T19:31:31.617Z,95904.25
2023-01-17T19:33:35.998Z,95904.92
2023-01-17T19:35:39.064Z,95906.72
2023-01-17T19:37:46.880Z,95901.82
2023-01-17T19:39:49.932Z,95902.25
2023-01-17T19:41:53.040Z,95908.38
2023-01-17T19:43:57.476Z,95910.77
2023-01-17T19:46:01.589Z,95912.61
2023-01-17T19:48:05.153Z,95910.55
2023-01-17T19:50:09.631Z,95909.63
2023-01-17T19:52:15.353Z,95910.31
2023-01-17T19:54:18.606Z,95907.86
2023-01-17T19:56:24.858Z,95909.83
2023-01-17T19:58:27.943Z,95907.27
2023-01-17T20:00:30.881Z,95911.59
2023-01-17T20:02:35.884Z,95912.44
2023-01-17T20:04:39.392Z,95916.42
2023-01-17T20:06:42.399Z,95915.16
2023-01-17T20:08:45.897Z,95916.89
2023-01-17T20:10:49.781Z,95920.19
2023-01-17T20:12:54.007Z,95916.63
2023-01-17T20:14:58.302Z,95917.58
2023-01-17T20:17:02.601Z,95917.42
2023-01-17T20:19:06.091Z,95921.70
2023-01-17T20:21:17.205Z,95925.19
2023-01-17T20:23:20.579Z,95925.63
2023-01-17T20:25:27.943Z,95928.55
2023-01-17T20:27:30.540Z,95932.06
2023-01-17T20:29:35.168Z,95934.52
2023-01-17T20:31:41.096Z,95934.09
2023-01-17T20:33:47.008Z,95936.63
2023-01-17T20:36:04.874Z,95937.19
2023-01-17T20:38:13.016Z,95936.34
2023-01-17T20:40:17.918Z,95932.55
2023-01-17T20:42:22.033Z,95932.81
2023-01-17T20:44:25.511Z,95933.77
2023-01-17T20:46:31.365Z,95928.14
2023-01-17T20:48:34.538Z,95927.98
2023-01-17T20:50:37.516Z,95924.11
2023-01-17T20:52:40.762Z,95928.02
2023-01-17T20:54:43.704Z,95928.45
2023-01-17T20:56:47.848Z,95928.27
2023-01-17T20:58:52.859Z,95931.37
2023-01-17T21:00:56.179Z,95931.09
2023-01-17T21:02:58.881Z,95930.92
2023-01-17T21:05:03.710Z,95929.03
2023-01-17T21:07:07.076Z,95928.64
2023-01-17T21:09:13.230Z,95928.95
2023-01-17T21:11:20.572Z,95926.98
2023-01-17T21:13:23.926Z,95928.95
2023-01-17T21:15:26.397Z,95924.37
2023-01-17T21:17:29.235Z,95919.02
2023-01-17T21:19:32.069Z,95920.52
2023-01-17T21:21:34.714Z,95921.13
2023-01-17T21:23:39.127Z,95920.04
2023-01-17T21:25:42.641Z,95917.63
2023-01-17T21:27:47.679Z,95918.03
2023-01-17T21:29:50.231Z,95911.02
2023-01-17T21:31:52.771Z,95906.29
2023-01-17T21:33:59.897Z,95904.48
2023-01-17T21:36:08.341Z,95906.64
2023-01-17T21:38:12.362Z,95907.40
2023-01-17T21:40:17.015Z,95906.64
2023-01-17T21:42:19.650Z,95910.27
2023-01-17T21:44:23.456Z,95911.88
2023-01-17T21:46:28.130Z,95913.95
2023-01-17T21:48:32.074Z,95910.63
2023-01-17T21:50:34.785Z,95906.63
2023-01-17T21:52:37.354Z,95900.84
2023-01-17T21:54:58.704Z,95899.95
2023-01-17T21:57:19.715Z,95893.10
2023-01-17T21:59:22.246Z,95888.69
2023-01-17T22:01:28.795Z,95885.87
2023-01-17T22:03:31.412Z,95884.92
2023-01-17T22:05:34.125Z,95880.67
2023-01-17T22:07:38.928Z,95883.73
2023-01-17T22:09:41.697Z,95883.98
2023-01-17T22:11:44.409Z,95880.84
2023-01-17T22:13:47.959Z,95881.13
2023-01-17T22:15:59.228Z,95881.30
2023-01-17T22:18:02.776Z,95882.98
2023-01-17T22:20:07.016Z,95883.96
2023-01-17T22:22:09.684Z,95886.34
2023-01-17T22:24:13.104Z,95883.57
2023-01-17T22:26:16.922Z,95874.89
2023-01-17T22:28:20.681Z,95877.15
2023-01-17T22:30:23.892Z,95875.60
2023-01-17T22:32:26.511Z,95873.18
2023-01-17T22:34:29.707Z,95873.52
2023-01-17T22:36:33.493Z,95872.67
2023-01-17T22:38:36.615Z,95875.36
2023-01-17T22:40:39.456Z,95871.05
2023-01-17T22:42:42.075Z,95868.33
2023-01-17T22:44:45.695Z,95870.00
2023-01-17T22:46:48.322Z,95871.25
2023-01-17T22:48:52.357Z,95870.34
2023-01-17T22:51:00.419Z,95867.67
2023-01-17T22:53:04.130Z,95870.00
2023-01-17T22:55:07.649Z,95874.00
2023-01-17T22:57:10.366Z,95875.68
2023-01-17T22:59:13.083Z,95872.23
2023-01-17T23:01:21.723Z,95868.47
2023-01-17T23:03:24.693Z,95865.20
2023-01-17T23:05:27.449Z,95863.47
2023-01-17T23:07:43.052Z,95861.14
2023-01-17T23:09:45.696Z,95858.59
2023-01-17T23:11:52.651Z,95863.14
2023-01-17T23:13:55.224Z,95863.63
2023-01-17T23:16:16.553Z,95862.17
2023-01-17T23:18:37.992Z,95862.63
2023-01-17T23:20:42.042Z,95863.50
2023-01-17T23:22:44.921Z,95862.42
2023-01-17T23:25:12.324Z,95862.37
2023-01-17T23:27:39.352Z,95864.48
2023-01-17T23:29:42.363Z,95868.27
2023-01-17T23:31:45.269Z,95868.40
2023-01-17T23:33:49.070Z,95868.44
2023-01-17T23:35:52.336Z,95866.45
2023-01-17T23:38:14.531Z,95868.55
2023-01-17T23:40:17.817Z,95868.39
2023-01-17T23:42:47.276Z,95863.52
2023-01-17T23:44:50.762Z,95865.45
2023-01-17T23:46:54.199Z,95869.31
2023-01-17T23:48:56.879Z,95866.27
2023-01-17T23:51:08.395Z,95867.26
2023-01-17T23:53:16.214Z,95867.70
2023-01-17T23:55:18.783Z,95863.67
2023-01-17T23:57:21.502Z,95865.07
2023-01-17T23:59:24.204Z,95863.59
